Santa Fe, New Mexico
Current Conditions -  °F | °C
As of 2:53 PM on Thursday 18 Dec 2014 (Local Time) from KSAF Reporting Station
Overcast Overcast  
Wind Chill:   Ceiling: 4700
Heat Index:   Visibility: 10mi
Dew Point: -4°   Wind: 7mph
Humidity: 57%   Direction: 330°NNW
Pressure: 30.07"   Gusts: NA
Location:  35.69°N, 105.93°W
Report Text: KSAF 182153Z 33006KT 10SM OVC047 03/M04 A3007 RMK AO2 SLP175 T00331044
Loading
Personal Weather Stations






























Interactive Weather Map New forecast layout! Learn more

10-Day Weather Forecast

Advertisements
Track Severe Weather on mobile